Time;durP1;ratioP1;P1;durP2;ratioP2;P2;SDS_P1;SDS_P2;PMS_P1;PMS_P2;Temp;Humidity;BMP_temperature;BMP_pressure;BME280_temperature;BME280_humidity;BME280_pressure;Samples;Min_cycle;Max_cycle;Signal;HPM_P1;HPM_P2
2022/01/03 00:01:46;;;;;;;4.43;2.90;;;10.70;99.90;;;;;;5112049;28;20649;-72
2022/01/03 00:04:15;;;;;;;6.13;3.13;;;10.70;99.90;;;;;;5112344;28;20177;-73
2022/01/03 00:06:41;;;;;;;5.03;2.93;;;10.70;99.90;;;;;;5112566;28;20208;-74
2022/01/03 00:09:08;;;;;;;5.63;3.37;;;10.60;99.90;;;;;;5111996;28;20258;-73
2022/01/03 00:11:35;;;;;;;5.80;3.57;;;10.60;99.90;;;;;;5094068;28;20176;-74
2022/01/03 00:14:02;;;;;;;4.10;2.83;;;10.60;99.90;;;;;;5094012;28;20509;-74
2022/01/03 00:16:27;;;;;;;4.90;2.90;;;10.60;99.90;;;;;;5112138;28;20196;-74
2022/01/03 00:18:54;;;;;;;4.57;2.80;;;10.70;99.90;;;;;;5111680;28;20174;-74
2022/01/03 00:21:25;;;;;;;5.07;2.90;;;10.70;99.90;;;;;;5111596;28;20174;-74
2022/01/03 00:23:56;;;;;;;5.57;3.17;;;10.70;99.90;;;;;;5115444;28;20184;-74
2022/01/03 00:26:26;;;;;;;4.40;2.80;;;10.80;99.90;;;;;;5095026;28;20190;-72
2022/01/03 00:29:00;;;;;;;6.93;3.23;;;10.80;99.90;;;;;;5103305;28;20174;-70
2022/01/03 00:31:40;;;;;;;7.23;3.20;;;10.80;99.90;;;;;;5110080;28;20177;-71
2022/01/03 00:48:08;;;;;;;5.73;2.80;;;10.70;99.90;;;;;;5093920;28;20177;-74
2022/01/03 00:50:34;;;;;;;7.57;2.87;;;10.70;99.90;;;;;;5091885;28;20628;-71
2022/01/03 00:52:59;;;;;;;6.67;2.90;;;10.70;99.90;;;;;;5091942;28;20181;-73
2022/01/03 00:55:25;;;;;;;6.23;2.90;;;10.70;99.90;;;;;;5091779;28;20218;-73
2022/01/03 00:58:05;;;;;;;4.40;2.20;;;10.70;99.90;;;;;;5102358;28;20216;-73
2022/01/03 01:00:35;;;;;;;6.63;3.03;;;10.70;99.90;;;;;;5085213;28;20170;-70
2022/01/03 01:03:15;;;;;;;6.97;2.77;;;10.60;99.90;;;;;;5093926;28;20170;-71
2022/01/03 01:05:44;;;;;;;5.13;2.77;;;10.60;99.90;;;;;;5111934;28;20261;-70
2022/01/03 01:08:10;;;;;;;6.60;3.00;;;10.60;99.90;;;;;;5090466;28;20719;-71
2022/01/03 01:10:39;;;;;;;6.27;2.53;;;10.60;99.90;;;;;;5093233;28;20190;-72
2022/01/03 01:13:08;;;;;;;4.43;2.50;;;10.60;99.90;;;;;;5106281;28;20170;-72
2022/01/03 01:15:35;;;;;;;4.90;2.57;;;10.50;99.90;;;;;;5103447;28;20263;-71
2022/01/03 01:18:04;;;;;;;6.37;2.30;;;10.50;99.90;;;;;;5110261;28;20734;-71
2022/01/03 01:20:30;;;;;;;3.67;2.33;;;10.50;99.90;;;;;;5107821;28;20168;-71
2022/01/03 01:22:56;;;;;;;3.20;2.30;;;10.40;99.90;;;;;;5107780;28;20165;-72
2022/01/03 01:27:50;;;;;;;3.73;2.63;;;10.40;99.90;;;;;;5108692;28;20166;-72
2022/01/03 01:30:35;;;;;;;2.67;2.00;;;10.40;99.90;;;;;;5091995;28;20223;-72
2022/01/03 01:33:13;;;;;;;5.30;2.20;;;10.40;99.90;;;;;;5092695;28;20174;-74
2022/01/03 01:35:46;;;;;;;3.83;2.67;;;10.40;99.90;;;;;;5105890;28;20419;-72
2022/01/03 01:38:18;;;;;;;4.33;2.40;;;10.40;99.90;;;;;;5108865;28;20194;-72
2022/01/03 01:40:55;;;;;;;3.57;1.90;;;10.30;99.90;;;;;;5107090;28;20231;-73
2022/01/03 01:43:35;;;;;;;4.03;2.13;;;10.30;99.90;;;;;;5097005;28;20165;-72
2022/01/03 01:46:05;;;;;;;5.13;2.27;;;10.30;99.90;;;;;;5088738;28;20590;-72
2022/01/03 01:48:34;;;;;;;3.80;2.13;;;10.30;99.90;;;;;;5094306;28;20589;-72
2022/01/03 01:51:00;;;;;;;2.53;1.83;;;10.30;99.90;;;;;;5097103;28;20193;-72
2022/01/03 01:53:27;;;;;;;3.53;2.40;;;10.30;99.90;;;;;;5115244;28;20649;-72
2022/01/03 01:55:57;;;;;;;3.90;2.20;;;10.30;99.90;;;;;;5097046;28;20193;-72
2022/01/03 01:58:36;;;;;;;3.30;2.00;;;10.30;99.90;;;;;;5095161;28;20621;-73
2022/01/03 02:01:06;;;;;;;2.73;1.90;;;10.30;99.90;;;;;;5112953;28;20166;-72
2022/01/03 02:03:35;;;;;;;4.90;1.73;;;10.20;99.90;;;;;;5112896;28;20525;-73
2022/01/03 02:06:15;;;;;;;2.70;2.00;;;10.20;99.90;;;;;;5096660;28;20196;-72
2022/01/03 02:08:52;;;;;;;1.90;1.70;;;10.20;99.90;;;;;;5114502;28;20646;-72
2022/01/03 02:11:49;;;;;;;2.67;1.33;;;10.20;99.90;;;;;;5114935;28;20169;-73
2022/01/03 02:14:15;;;;;;;1.93;1.40;;;10.20;99.90;;;;;;5096166;28;20212;-72
2022/01/03 02:16:41;;;;;;;1.63;1.50;;;10.20;99.90;;;;;;5105934;28;20209;-72
2022/01/03 02:19:07;;;;;;;1.70;1.50;;;10.20;99.90;;;;;;5114463;28;20172;-72
2022/01/03 02:21:32;;;;;;;3.20;1.90;;;10.10;99.90;;;;;;5096532;28;20256;-72
2022/01/03 02:23:58;;;;;;;4.37;1.67;;;10.10;99.90;;;;;;5114443;28;20193;-74
2022/01/03 02:26:23;;;;;;;2.70;1.33;;;10.10;99.90;;;;;;5114640;28;20178;-72
2022/01/03 02:28:50;;;;;;;3.87;1.63;;;10.10;99.90;;;;;;5114208;28;20185;-72
2022/01/03 02:31:17;;;;;;;3.43;1.20;;;10.00;99.90;;;;;;5096192;28;20637;-71
2022/01/03 02:33:44;;;;;;;2.17;1.30;;;10.00;99.90;;;;;;5114358;28;20170;-73
2022/01/03 02:39:31;;;;;;;1.70;1.00;;;10.00;99.90;;;;;;5112717;28;20188;-73
2022/01/03 02:41:57;;;;;;;3.73;1.20;;;10.00;99.90;;;;;;5096029;28;20261;-72
2022/01/03 02:44:23;;;;;;;3.13;1.23;;;10.00;99.90;;;;;;5095452;28;20256;-72
2022/01/03 02:46:48;;;;;;;2.43;1.23;;;10.10;99.90;;;;;;5114053;28;20162;-72
2022/01/03 02:49:14;;;;;;;2.30;1.27;;;10.00;99.90;;;;;;5095456;28;20591;-73
2022/01/03 02:51:44;;;;;;;3.47;1.20;;;10.00;99.90;;;;;;5095963;28;20166;-75
2022/01/03 02:54:09;;;;;;;1.80;1.00;;;10.00;99.90;;;;;;5095877;28;20262;-72
2022/01/03 02:56:35;;;;;;;1.70;0.90;;;10.00;99.90;;;;;;5095672;28;20276;-72
2022/01/03 02:59:00;;;;;;;2.67;1.27;;;10.00;99.90;;;;;;5095269;28;20212;-75
2022/01/03 03:01:26;;;;;;;0.90;0.80;;;10.00;99.90;;;;;;5095471;28;20570;-72
2022/01/03 03:03:51;;;;;;;4.37;1.27;;;10.00;99.90;;;;;;5095617;28;20630;-72
2022/01/03 03:06:17;;;;;;;1.43;0.77;;;10.00;99.90;;;;;;5095640;28;20196;-72
2022/01/03 03:08:43;;;;;;;2.70;1.13;;;10.00;99.90;;;;;;5095080;28;20169;-72
2022/01/03 03:11:08;;;;;;;3.40;0.87;;;10.00;99.90;;;;;;5095692;28;20188;-72
2022/01/03 03:13:34;;;;;;;1.40;0.97;;;10.00;99.90;;;;;;5096957;28;20180;-72
2022/01/03 03:15:59;;;;;;;2.83;0.93;;;10.00;99.90;;;;;;5095310;28;20616;-72
2022/01/03 03:18:25;;;;;;;1.90;0.90;;;10.00;99.90;;;;;;5094673;28;20650;-72
2022/01/03 03:20:54;;;;;;;2.50;0.80;;;10.00;99.90;;;;;;5095420;28;20630;-72
2022/01/03 03:23:20;;;;;;;1.30;0.67;;;10.00;99.90;;;;;;5095160;28;20197;-74
2022/01/03 03:25:46;;;;;;;1.30;0.70;;;10.00;99.90;;;;;;5095089;28;20239;-72
2022/01/03 03:28:15;;;;;;;1.80;0.80;;;10.00;99.90;;;;;;5094570;28;20189;-72
2022/01/03 03:30:47;;;;;;;2.23;1.00;;;10.00;99.90;;;;;;5095005;28;20199;-72
2022/01/03 03:33:18;;;;;;;1.77;0.90;;;10.00;99.90;;;;;;5095074;28;20189;-72
2022/01/03 03:35:44;;;;;;;2.23;0.70;;;10.00;99.90;;;;;;5094857;28;20205;-72
2022/01/03 03:38:11;;;;;;;3.07;1.20;;;9.90;99.90;;;;;;5094325;28;20215;-72
2022/01/03 03:40:37;;;;;;;1.83;0.70;;;9.90;99.90;;;;;;5093323;28;20251;-72
2022/01/03 03:43:03;;;;;;;2.55;1.10;;;9.90;99.90;;;;;;5094297;28;20427;-72
2022/01/03 03:45:29;;;;;;;2.47;1.30;;;9.90;99.90;;;;;;5094360;28;20190;-72
2022/01/03 03:47:57;;;;;;;3.07;0.87;;;9.90;99.90;;;;;;5094224;28;20260;-72
2022/01/03 03:50:23;;;;;;;1.27;0.80;;;9.90;99.90;;;;;;5094687;28;20177;-72
2022/01/03 03:52:48;;;;;;;1.67;1.30;;;9.80;99.90;;;;;;5112726;28;20637;-72
2022/01/03 03:55:14;;;;;;;3.97;1.07;;;9.80;99.90;;;;;;5112264;28;20259;-72
2022/01/03 03:57:40;;;;;;;3.57;1.53;;;9.80;99.90;;;;;;5094181;28;20259;-71
2022/01/03 04:00:13;;;;;;;3.73;1.20;;;9.80;99.90;;;;;;5094250;28;20174;-71
2022/01/03 04:02:38;;;;;;;3.07;1.30;;;9.80;99.90;;;;;;5094262;28;20178;-71
2022/01/03 04:05:04;;;;;;;2.20;1.10;;;9.80;99.90;;;;;;5113018;28;20713;-72
2022/01/03 04:07:30;;;;;;;3.00;1.10;;;9.80;99.90;;;;;;5094245;28;20195;-73
2022/01/03 04:09:55;;;;;;;2.87;1.00;;;9.80;99.90;;;;;;5094060;28;20178;-72
2022/01/03 04:12:21;;;;;;;2.53;1.20;;;9.80;99.90;;;;;;5094353;28;20520;-75
2022/01/03 04:14:47;;;;;;;2.83;1.40;;;9.80;99.90;;;;;;5094235;28;20287;-72
2022/01/03 04:17:12;;;;;;;2.73;1.00;;;9.80;99.90;;;;;;5112248;28;20204;-74
2022/01/03 04:19:38;;;;;;;2.07;1.00;;;9.80;99.90;;;;;;5093722;28;20211;-74
2022/01/03 04:22:04;;;;;;;4.73;1.43;;;9.80;99.90;;;;;;5112548;28;20676;-71
2022/01/03 04:24:30;;;;;;;2.13;1.20;;;9.80;99.90;;;;;;5112195;28;20169;-73
2022/01/03 04:26:55;;;;;;;1.07;0.87;;;9.70;99.90;;;;;;5112444;28;20180;-70
2022/01/03 04:29:21;;;;;;;1.90;1.07;;;9.70;99.90;;;;;;5093624;28;20173;-70
2022/01/03 04:31:46;;;;;;;1.30;0.80;;;9.80;99.90;;;;;;5112127;28;20272;-70
2022/01/03 04:34:13;;;;;;;2.87;1.10;;;9.70;99.90;;;;;;5093814;28;20181;-72
2022/01/03 04:36:39;;;;;;;2.50;0.70;;;9.70;99.90;;;;;;5070078;22;20230;-77
2022/01/03 04:39:05;;;;;;;2.60;1.57;;;9.70;99.90;;;;;;5040643;28;20175;-77
2022/01/03 04:41:31;;;;;;;1.13;0.60;;;9.80;99.90;;;;;;5053062;28;20533;-74
2022/01/03 04:43:56;;;;;;;1.33;0.53;;;9.70;99.90;;;;;;5034153;28;20168;-74
2022/01/03 04:46:22;;;;;;;2.20;0.63;;;9.70;99.90;;;;;;5033599;28;20188;-74
2022/01/03 04:48:47;;;;;;;0.77;0.50;;;9.70;99.90;;;;;;5033105;28;20175;-77
2022/01/03 04:51:13;;;;;;;2.57;0.60;;;9.70;99.90;;;;;;5033660;28;20183;-74
2022/01/03 04:53:40;;;;;;;1.03;0.40;;;9.70;99.90;;;;;;5051251;28;20167;-73
2022/01/03 04:56:10;;;;;;;0.60;0.40;;;9.70;99.90;;;;;;5035982;28;20203;-74
2022/01/03 04:58:37;;;;;;;1.23;0.50;;;9.70;99.90;;;;;;5070986;28;20226;-77
2022/01/03 05:01:03;;;;;;;6.33;4.00;;;9.70;99.90;;;;;;5053460;28;20171;-75
2022/01/03 05:03:29;;;;;;;0.90;0.60;;;9.70;99.90;;;;;;5071470;28;20178;-73
2022/01/03 05:05:54;;;;;;;1.30;0.63;;;9.70;99.90;;;;;;5071619;28;20191;-73
2022/01/03 05:08:20;;;;;;;0.37;0.30;;;9.70;99.90;;;;;;5056969;28;20178;-73
2022/01/03 05:10:45;;;;;;;1.23;0.77;;;9.60;99.90;;;;;;5057616;28;20177;-73
2022/01/03 05:13:11;;;;;;;0.40;0.30;;;9.60;99.90;;;;;;5057339;28;20206;-72
2022/01/03 05:15:36;;;;;;;0.97;0.67;;;9.60;99.90;;;;;;5057297;28;20274;-73
2022/01/03 05:18:02;;;;;;;1.63;0.70;;;9.60;99.90;;;;;;5057126;28;20285;-73
2022/01/03 05:20:28;;;;;;;2.50;1.23;;;9.60;99.90;;;;;;5057239;28;20662;-73
2022/01/03 05:22:54;;;;;;;1.40;0.30;;;9.50;99.90;;;;;;5057007;28;20171;-76
2022/01/03 05:25:19;;;;;;;1.63;0.70;;;9.50;99.90;;;;;;5057334;28;20191;-73
2022/01/03 05:27:45;;;;;;;0.77;0.70;;;9.50;99.90;;;;;;5056665;28;20171;-74
2022/01/03 05:30:11;;;;;;;0.30;0.30;;;9.50;99.90;;;;;;5057152;28;20174;-74
2022/01/03 05:32:37;;;;;;;0.50;0.40;;;9.50;99.90;;;;;;5056784;28;20220;-74
2022/01/03 05:35:03;;;;;;;0.67;0.40;;;9.40;99.90;;;;;;5056930;28;20214;-75
2022/01/03 05:37:29;;;;;;;2.73;1.10;;;9.40;99.90;;;;;;5056614;28;20289;-74
2022/01/03 05:39:54;;;;;;;0.70;0.47;;;9.40;99.90;;;;;;5074756;28;20570;-74
2022/01/03 05:42:20;;;;;;;2.40;0.97;;;9.30;99.90;;;;;;5056589;28;20254;-74
2022/01/03 05:44:45;;;;;;;1.73;1.13;;;9.30;99.90;;;;;;5056794;28;20163;-74
2022/01/03 05:47:11;;;;;;;1.17;0.90;;;9.20;99.90;;;;;;5056737;28;20515;-74
2022/01/03 05:49:36;;;;;;;2.60;1.10;;;9.20;99.90;;;;;;5056308;28;20167;-75
2022/01/03 05:52:02;;;;;;;1.37;0.60;;;9.10;99.90;;;;;;5056503;28;20225;-74
2022/01/03 05:54:28;;;;;;;1.10;0.60;;;9.00;99.90;;;;;;5074271;28;20173;-76
2022/01/03 05:56:53;;;;;;;1.60;0.80;;;9.00;99.90;;;;;;5056459;28;20293;-74
2022/01/03 05:59:19;;;;;;;2.17;0.53;;;9.00;99.90;;;;;;5056095;28;20167;-74
2022/01/03 06:01:46;;;;;;;2.10;0.80;;;8.90;99.90;;;;;;5056520;28;20202;-75
2022/01/03 06:04:35;;;;;;;3.23;1.00;;;9.00;99.90;;;;;;5056250;28;20180;-74
2022/01/03 06:07:07;;;;;;;2.53;1.20;;;8.90;99.90;;;;;;5074427;28;20690;-75
2022/01/03 06:09:33;;;;;;;2.47;1.20;;;9.00;99.90;;;;;;5055878;28;20282;-76
2022/01/03 06:11:58;;;;;;;3.13;0.90;;;9.00;99.90;;;;;;5074277;28;20646;-74
2022/01/03 06:14:24;;;;;;;3.13;1.23;;;9.00;99.90;;;;;;5074047;28;20174;-74
2022/01/03 06:16:50;;;;;;;3.07;1.20;;;9.00;99.90;;;;;;5056058;28;20199;-74
2022/01/03 06:19:16;;;;;;;4.10;1.33;;;9.10;99.90;;;;;;5055368;28;20228;-73
2022/01/03 06:21:43;;;;;;;5.13;1.30;;;9.10;99.90;;;;;;5074367;28;20254;-74
2022/01/03 06:24:10;;;;;;;2.73;1.00;;;9.10;99.90;;;;;;5056219;28;20179;-74
2022/01/03 06:26:37;;;;;;;3.87;1.00;;;9.10;99.90;;;;;;5056014;28;20202;-74
2022/01/03 06:29:05;;;;;;;4.23;1.10;;;9.10;99.90;;;;;;5055592;28;20179;-74
2022/01/03 06:31:32;;;;;;;3.80;1.33;;;9.10;99.90;;;;;;5039444;28;20207;-77
2022/01/03 06:33:58;;;;;;;5.43;1.70;;;9.10;99.90;;;;;;5073900;28;20181;-74
2022/01/03 06:36:24;;;;;;;5.20;1.40;;;9.20;99.90;;;;;;5073958;28;20285;-74
2022/01/03 06:38:50;;;;;;;2.00;1.00;;;9.10;99.90;;;;;;5074621;28;20624;-74
2022/01/03 06:41:15;;;;;;;4.23;1.30;;;9.20;99.90;;;;;;5075463;28;20632;-74
2022/01/03 06:43:41;;;;;;;4.03;1.37;;;9.20;99.90;;;;;;5074107;28;20250;-76
2022/01/03 06:46:07;;;;;;;4.87;1.43;;;9.20;99.90;;;;;;5056322;28;20191;-75
2022/01/03 06:48:32;;;;;;;5.97;0.90;;;9.20;99.90;;;;;;5073813;28;20207;-74
2022/01/03 06:50:58;;;;;;;4.33;1.67;;;9.20;99.90;;;;;;5073635;28;20175;-74
2022/01/03 06:53:23;;;;;;;5.57;1.27;;;9.20;99.90;;;;;;5073532;28;20171;-77
2022/01/03 06:55:49;;;;;;;5.63;1.50;;;9.30;99.90;;;;;;5073644;28;20213;-75
2022/01/03 06:58:15;;;;;;;3.20;1.40;;;9.30;99.90;;;;;;5073202;28;20210;-74
2022/01/03 07:00:40;;;;;;;3.13;1.37;;;9.30;99.90;;;;;;5073061;28;20255;-75
2022/01/03 07:03:07;;;;;;;4.70;2.00;;;9.40;99.90;;;;;;5053513;28;20211;-74
2022/01/03 07:05:32;;;;;;;4.80;1.70;;;9.40;99.90;;;;;;5055318;28;20242;-77
2022/01/03 07:07:59;;;;;;;4.20;1.57;;;9.40;99.90;;;;;;5054862;28;20170;-73
2022/01/03 07:10:25;;;;;;;5.20;1.93;;;9.40;99.90;;;;;;5055186;28;20167;-74
2022/01/03 07:12:52;;;;;;;10.80;2.40;;;9.40;99.90;;;;;;5073334;28;20177;-75
2022/01/03 07:20:48;;;;;;;8.57;2.17;;;9.40;99.90;;;;;;5053439;28;20183;-74
2022/01/03 07:23:15;;;;;;;8.57;2.00;;;9.50;99.90;;;;;;5051287;28;20172;-74
2022/01/03 07:25:41;;;;;;;7.40;2.00;;;9.50;99.90;;;;;;5034902;28;20656;-73
2022/01/03 07:28:06;;;;;;;5.70;1.73;;;9.40;99.90;;;;;;5052330;28;20179;-74
2022/01/03 07:30:32;;;;;;;3.83;1.80;;;9.40;99.90;;;;;;5036167;28;20206;-74
2022/01/03 07:32:58;;;;;;;6.60;2.10;;;9.50;99.90;;;;;;5066973;28;20195;-74
2022/01/03 07:35:23;;;;;;;5.40;1.80;;;9.50;99.90;;;;;;5068632;28;20215;-77
2022/01/03 07:37:49;;;;;;;6.67;2.00;;;9.50;99.90;;;;;;5063741;28;20195;-74
2022/01/03 07:40:15;;;;;;;9.53;1.87;;;9.50;99.90;;;;;;5071891;28;20195;-74
2022/01/03 07:42:42;;;;;;;9.17;2.27;;;9.50;99.90;;;;;;5064486;28;20191;-74
2022/01/03 07:45:08;;;;;;;6.27;1.53;;;9.50;99.90;;;;;;5052339;28;20228;-75
2022/01/03 07:47:34;;;;;;;8.57;1.63;;;9.60;99.90;;;;;;5046604;28;20192;-74
2022/01/03 07:49:59;;;;;;;4.73;1.53;;;9.50;99.90;;;;;;5071496;28;20216;-75
2022/01/03 07:52:25;;;;;;;5.63;2.07;;;9.50;99.90;;;;;;5072369;28;20682;-75
2022/01/03 07:54:52;;;;;;;5.93;1.70;;;9.50;99.90;;;;;;5052993;28;20189;-75
2022/01/03 07:57:18;;;;;;;7.03;2.20;;;9.50;99.90;;;;;;5064167;28;20242;-75
2022/01/03 07:59:45;;;;;;;10.83;2.07;;;9.50;99.90;;;;;;5050118;28;20587;-77
2022/01/03 08:02:11;;;;;;;7.37;1.97;;;9.50;99.90;;;;;;5067145;28;20175;-75
2022/01/03 08:04:37;;;;;;;7.23;2.10;;;9.50;99.90;;;;;;5051401;28;20269;-74
2022/01/03 08:07:03;;;;;;;10.60;2.43;;;9.50;99.90;;;;;;5051435;28;20312;-76
2022/01/03 08:09:29;;;;;;;10.17;2.00;;;9.50;99.90;;;;;;5071086;28;20190;-75
2022/01/03 08:11:54;;;;;;;5.60;1.80;;;9.50;99.90;;;;;;5072891;28;20223;-73
2022/01/03 08:14:20;;;;;;;7.27;1.70;;;9.50;99.90;;;;;;5063095;28;20182;-75
2022/01/03 08:16:45;;;;;;;9.87;2.20;;;9.50;99.90;;;;;;5063272;28;20195;-74
2022/01/03 08:19:11;;;;;;;8.77;2.00;;;9.60;99.90;;;;;;5064111;28;20248;-74
2022/01/03 08:21:36;;;;;;;7.17;2.13;;;9.60;99.90;;;;;;5042143;28;20543;-76
2022/01/03 08:24:02;;;;;;;5.63;2.17;;;9.60;99.90;;;;;;5041311;28;20191;-75
2022/01/03 08:26:27;;;;;;;6.57;1.97;;;9.60;99.90;;;;;;5058685;28;20214;-74
2022/01/03 08:28:53;;;;;;;8.17;2.10;;;9.60;99.90;;;;;;5062592;28;20183;-77
2022/01/03 08:31:21;;;;;;;10.63;2.97;;;9.60;99.90;;;;;;5052912;28;20202;-74
2022/01/03 08:33:47;;;;;;;8.87;1.93;;;9.70;99.90;;;;;;5033602;28;20176;-74
2022/01/03 08:36:13;;;;;;;13.43;2.60;;;9.70;99.90;;;;;;5070822;28;20740;-75
2022/01/03 08:38:39;;;;;;;4.50;2.17;;;9.70;99.90;;;;;;5052207;28;20222;-74
2022/01/03 08:41:04;;;;;;;12.30;2.90;;;9.70;99.90;;;;;;5065459;28;20172;-74
2022/01/03 08:43:30;;;;;;;17.17;8.93;;;9.80;99.90;;;;;;5067351;28;20650;-74
2022/01/03 08:45:55;;;;;;;11.00;4.17;;;9.90;99.90;;;;;;5064440;28;20195;-75
2022/01/03 08:48:22;;;;;;;8.37;2.60;;;9.90;99.90;;;;;;5052259;28;20655;-75
2022/01/03 08:50:47;;;;;;;9.77;3.03;;;9.90;99.90;;;;;;5062871;28;20213;-76
2022/01/03 08:53:13;;;;;;;11.87;3.20;;;10.00;99.90;;;;;;5063988;28;20183;-74
2022/01/03 08:55:40;;;;;;;11.73;3.67;;;10.10;99.90;;;;;;5068948;28;20268;-74
2022/01/03 08:58:05;;;;;;;12.67;2.63;;;10.40;99.90;;;;;;5064786;28;20691;-74
2022/01/03 09:00:31;;;;;;;8.13;2.20;;;10.80;99.90;;;;;;5053251;28;20266;-74
2022/01/03 09:02:56;;;;;;;10.87;2.87;;;10.90;99.90;;;;;;5070440;28;20216;-74
2022/01/03 09:05:22;;;;;;;7.20;2.23;;;10.90;99.90;;;;;;5052635;28;20213;-73
2022/01/03 09:07:48;;;;;;;11.30;2.57;;;10.90;99.90;;;;;;5049255;28;20178;-74
2022/01/03 09:10:13;;;;;;;8.00;2.40;;;10.80;99.90;;;;;;5066851;28;20619;-73
2022/01/03 09:12:39;;;;;;;9.13;1.80;;;10.80;99.90;;;;;;5071276;28;20228;-79
2022/01/03 09:15:05;;;;;;;16.13;2.63;;;10.80;99.90;;;;;;5059376;28;20192;-76
2022/01/03 09:17:31;;;;;;;10.50;2.30;;;10.60;99.90;;;;;;5057535;28;20202;-78
2022/01/03 09:19:56;;;;;;;10.67;2.50;;;10.70;99.90;;;;;;5071142;28;20246;-75
2022/01/03 09:22:28;;;;;;;15.43;3.37;;;10.70;99.90;;;;;;5061820;28;20642;-75
2022/01/03 09:30:10;;;;;;;10.50;1.93;;;10.40;99.90;;;;;;5054226;28;20205;-75
2022/01/03 09:32:36;;;;;;;9.50;2.43;;;10.40;99.90;;;;;;5070922;28;20209;-74
2022/01/03 09:35:02;;;;;;;8.90;2.20;;;10.60;99.90;;;;;;5052787;28;20199;-75
2022/01/03 09:37:27;;;;;;;11.60;2.60;;;10.60;99.90;;;;;;5071103;28;20190;-75
2022/01/03 09:39:54;;;;;;;10.50;2.10;;;10.60;99.90;;;;;;5052500;28;20182;-75
2022/01/03 09:42:23;;;;;;;7.60;1.90;;;10.60;99.90;;;;;;5070977;28;20185;-75
2022/01/03 09:44:50;;;;;;;7.07;2.10;;;10.60;99.90;;;;;;5070672;28;20194;-76
2022/01/03 09:47:18;;;;;;;12.43;2.23;;;10.60;99.90;;;;;;5067388;28;20624;-75
2022/01/03 09:49:44;;;;;;;7.30;2.03;;;10.70;99.90;;;;;;5050219;28;20199;-75
2022/01/03 09:52:10;;;;;;;7.30;1.67;;;10.70;99.90;;;;;;5050800;28;20309;-75
2022/01/03 09:54:38;;;;;;;10.30;1.83;;;10.80;99.90;;;;;;5067082;28;20675;-75
2022/01/03 09:57:05;;;;;;;9.67;2.47;;;10.80;99.90;;;;;;5074365;28;20195;-74
2022/01/03 09:59:31;;;;;;;7.40;1.97;;;11.10;99.90;;;;;;5074140;28;20600;-75
2022/01/03 10:01:58;;;;;;;6.97;2.00;;;11.10;99.90;;;;;;5074401;28;20175;-74
2022/01/03 10:04:24;;;;;;;8.37;2.10;;;11.30;99.90;;;;;;5056597;28;20687;-74
2022/01/03 10:06:50;;;;;;;12.17;3.00;;;11.20;99.90;;;;;;5074177;28;20194;-77
2022/01/03 10:09:18;;;;;;;8.73;3.13;;;11.10;99.90;;;;;;5074020;28;20167;-75
2022/01/03 10:11:44;;;;;;;15.80;2.40;;;11.10;99.90;;;;;;5056904;28;20497;-74
2022/01/03 10:14:11;;;;;;;12.67;3.20;;;11.00;99.90;;;;;;5074092;28;20225;-74
2022/01/03 10:16:37;;;;;;;15.50;3.73;;;10.90;99.90;;;;;;5053223;28;20195;-75
2022/01/03 10:19:03;;;;;;;13.90;4.97;;;11.00;99.90;;;;;;5056641;28;20615;-79
2022/01/03 10:21:36;;;;;;;15.67;3.57;;;11.20;99.90;;;;;;5074867;28;20254;-75
2022/01/03 10:24:03;;;;;;;8.43;2.77;;;11.30;99.90;;;;;;5075139;28;20161;-78
2022/01/03 10:26:28;;;;;;;10.57;3.37;;;11.40;99.90;;;;;;5057455;28;20190;-74
2022/01/03 10:29:14;;;;;;;8.20;2.63;;;11.40;99.90;;;;;;5073652;28;20254;-75
2022/01/03 10:31:42;;;;;;;9.50;3.23;;;11.50;99.90;;;;;;5074247;28;20228;-77
2022/01/03 10:34:11;;;;;;;8.27;2.80;;;11.60;99.90;;;;;;5073545;28;20274;-76
2022/01/03 10:36:37;;;;;;;11.77;3.83;;;11.80;99.90;;;;;;5089448;22;20233;-74
2022/01/03 10:39:13;;;;;;;12.50;3.57;;;11.90;99.90;;;;;;5092963;28;20198;-74
2022/01/03 10:41:39;;;;;;;9.57;3.10;;;12.10;99.90;;;;;;5075657;28;20174;-75
2022/01/03 10:44:04;;;;;;;14.77;3.23;;;12.20;99.90;;;;;;5075803;28;20185;-73
2022/01/03 10:46:33;;;;;;;12.00;4.07;;;12.30;99.90;;;;;;5075623;28;20186;-73
2022/01/03 10:49:26;;;;;;;10.57;3.57;;;12.20;99.90;;;;;;5075140;28;20232;-75
2022/01/03 10:51:52;;;;;;;11.53;3.03;;;12.30;99.90;;;;;;5072192;28;20182;-73
2022/01/03 10:54:18;;;;;;;10.40;3.43;;;12.30;99.90;;;;;;5075313;28;20174;-74
2022/01/03 10:56:50;;;;;;;11.73;3.67;;;12.40;99.90;;;;;;5075954;28;20187;-73
2022/01/03 10:59:15;;;;;;;28.83;12.03;;;12.40;99.90;;;;;;5076283;28;20214;-73
2022/01/03 11:01:46;;;;;;;13.70;3.53;;;12.30;99.90;;;;;;5075295;28;20325;-73
2022/01/03 11:04:58;;;;;;;11.70;3.37;;;12.10;99.90;;;;;;5074662;28;20166;-73
2022/01/03 11:13:14;;;;;;;10.77;3.20;;;11.80;99.90;;;;;;5093567;28;20228;-73
2022/01/03 11:16:01;;;;;;;11.17;3.17;;;11.80;99.90;;;;;;5075144;28;20248;-73
2022/01/03 11:18:38;;;;;;;12.50;3.63;;;11.70;99.90;;;;;;5076828;28;20202;-72
2022/01/03 11:21:13;;;;;;;9.87;2.70;;;11.60;99.90;;;;;;5086267;28;20204;-73
2022/01/03 11:24:00;;;;;;;12.40;3.07;;;11.50;99.90;;;;;;5085792;28;20204;-73
2022/01/03 11:26:27;;;;;;;10.97;3.20;;;11.40;99.90;;;;;;5061311;28;20195;-74
2022/01/03 11:28:53;;;;;;;10.03;2.90;;;11.40;99.90;;;;;;5075121;28;20718;-73
2022/01/03 11:31:21;;;;;;;17.43;3.50;;;11.30;99.90;;;;;;5075232;28;20214;-73
2022/01/03 11:33:51;;;;;;;10.43;3.10;;;11.30;99.90;;;;;;5074670;28;20178;-73
2022/01/03 11:36:19;;;;;;;11.70;3.17;;;11.30;99.90;;;;;;5092701;28;20206;-73
2022/01/03 11:38:45;;;;;;;9.33;3.33;;;11.30;99.90;;;;;;5074247;28;20266;-73
2022/01/03 11:41:12;;;;;;;11.90;3.60;;;11.30;99.90;;;;;;5074643;28;20193;-73
2022/01/03 11:43:42;;;;;;;9.47;3.50;;;11.20;99.90;;;;;;5074459;28;20173;-73
2022/01/03 11:46:08;;;;;;;15.27;4.13;;;11.40;99.90;;;;;;5092978;28;20187;-73
2022/01/03 11:48:35;;;;;;;12.13;3.60;;;11.50;99.90;;;;;;5074375;28;20507;-73
2022/01/03 11:51:07;;;;;;;9.67;3.37;;;11.60;99.90;;;;;;5074246;28;20291;-72
2022/01/03 11:53:35;;;;;;;10.63;4.40;;;11.60;99.90;;;;;;5074338;28;20185;-72
2022/01/03 11:56:06;;;;;;;9.43;3.40;;;11.70;99.90;;;;;;5074472;28;20194;-73
2022/01/03 11:59:07;;;;;;;11.57;3.30;;;11.60;99.90;;;;;;5073994;28;20213;-73
2022/01/03 12:04:57;;;;;;;9.03;3.47;;;11.30;99.90;;;;;;5092355;28;20176;-75
2022/01/03 12:07:23;;;;;;;8.77;3.33;;;11.30;99.90;;;;;;5074131;28;20198;-73
2022/01/03 12:09:54;;;;;;;14.80;4.40;;;11.40;99.90;;;;;;5074623;28;20517;-73
2022/01/03 12:12:31;;;;;;;10.23;3.97;;;11.40;99.90;;;;;;5092416;28;20177;-73
2022/01/03 12:14:59;;;;;;;8.50;3.23;;;11.40;99.90;;;;;;5074324;28;20202;-74
2022/01/03 12:17:46;;;;;;;13.87;3.83;;;11.40;99.90;;;;;;5091412;28;20290;-73
2022/01/03 12:20:12;;;;;;;13.83;3.70;;;11.50;99.90;;;;;;5071536;28;20170;-73
2022/01/03 12:22:49;;;;;;;12.40;3.43;;;11.60;99.90;;;;;;5074370;28;20243;-75
2022/01/03 12:25:26;;;;;;;11.47;3.80;;;11.60;99.90;;;;;;5073999;28;20205;-81
2022/01/03 12:27:56;;;;;;;13.80;3.83;;;11.60;99.90;;;;;;5073644;28;20202;-79
2022/01/03 12:30:25;;;;;;;11.43;3.50;;;11.60;99.90;;;;;;5066943;28;20182;-73
2022/01/03 12:33:08;;;;;;;12.57;3.70;;;11.60;99.90;;;;;;5073824;28;20203;-72
2022/01/03 12:35:36;;;;;;;10.30;3.93;;;11.60;99.90;;;;;;5088418;28;20541;-78
2022/01/03 12:38:04;;;;;;;12.90;3.33;;;11.50;99.90;;;;;;5072814;28;20237;-72
2022/01/03 12:40:36;;;;;;;13.50;3.40;;;11.50;99.90;;;;;;5075448;28;20182;-75
2022/01/03 12:43:10;;;;;;;14.40;4.40;;;11.40;99.90;;;;;;5094786;28;20626;-75
2022/01/03 12:45:44;;;;;;;13.10;4.03;;;11.30;99.90;;;;;;5074949;28;20202;-75
2022/01/03 12:50:51;;;;;;;18.50;3.57;;;11.30;99.90;;;;;;5090827;28;20219;-72
2022/01/03 12:53:29;;;;;;;10.37;3.50;;;11.30;99.90;;;;;;5073153;28;20178;-73
2022/01/03 12:56:12;;;;;;;16.87;3.97;;;11.30;99.90;;;;;;5091142;28;20273;-72
2022/01/03 12:58:39;;;;;;;16.70;4.07;;;11.30;99.90;;;;;;5091036;28;20666;-72
2022/01/03 13:01:21;;;;;;;10.83;3.27;;;11.30;99.90;;;;;;5090982;28;20235;-73
2022/01/03 13:03:51;;;;;;;13.33;3.93;;;11.30;99.90;;;;;;5065226;28;20525;-74
2022/01/03 13:06:33;;;;;;;11.13;3.17;;;11.30;99.90;;;;;;5091268;28;20209;-72
2022/01/03 13:09:05;;;;;;;11.70;3.20;;;11.20;99.90;;;;;;5090851;28;20630;-75
2022/01/03 13:11:35;;;;;;;9.77;3.50;;;11.20;99.90;;;;;;5091483;28;20166;-75
2022/01/03 13:14:05;;;;;;;8.90;3.30;;;11.20;99.90;;;;;;5072952;28;20212;-73
2022/01/03 13:16:38;;;;;;;15.20;3.97;;;11.20;99.90;;;;;;5090316;28;20190;-72
2022/01/03 13:19:12;;;;;;;12.93;3.07;;;11.20;99.90;;;;;;5072131;28;20568;-71
2022/01/03 13:21:46;;;;;;;12.43;2.93;;;11.20;99.90;;;;;;5091222;28;20190;-74
2022/01/03 13:24:28;;;;;;;11.93;3.60;;;11.20;99.90;;;;;;5073231;28;20171;-74
2022/01/03 13:27:00;;;;;;;11.07;3.20;;;11.20;99.90;;;;;;5062245;28;20192;-75
2022/01/03 13:29:47;;;;;;;9.00;2.57;;;11.30;99.90;;;;;;5085601;28;20162;-74
2022/01/03 13:32:15;;;;;;;10.20;2.97;;;11.30;99.90;;;;;;5106889;28;20170;-72
2022/01/03 13:34:40;;;;;;;17.67;3.67;;;11.30;99.90;;;;;;5095427;28;20642;-74
2022/01/03 13:37:08;;;;;;;11.87;2.77;;;11.40;99.90;;;;;;5094754;28;20292;-76